sensor_id;sensor_type;location;lat;lon;timestamp;temperature;humidity
43561;DHT22;32305;46.410;17.394;2023-02-01T00:00:32;20.10;34.20
43561;DHT22;32305;46.410;17.394;2023-02-01T00:03:01;20.10;34.20
43561;DHT22;32305;46.410;17.394;2023-02-01T00:05:28;20.10;34.10
43561;DHT22;32305;46.410;17.394;2023-02-01T00:07:55;20.00;34.10
43561;DHT22;32305;46.410;17.394;2023-02-01T00:10:22;20.00;34.10
43561;DHT22;32305;46.410;17.394;2023-02-01T00:12:49;20.00;34.10
43561;DHT22;32305;46.410;17.394;2023-02-01T00:15:17;20.00;34.10
43561;DHT22;32305;46.410;17.394;2023-02-01T00:17:44;20.00;34.10
43561;DHT22;32305;46.410;17.394;2023-02-01T00:20:11;20.00;34.10
43561;DHT22;32305;46.410;17.394;2023-02-01T00:22:38;20.00;34.10
43561;DHT22;32305;46.410;17.394;2023-02-01T00:25:05;20.00;34.10
43561;DHT22;32305;46.410;17.394;2023-02-01T00:27:33;20.00;34.10
43561;DHT22;32305;46.410;17.394;2023-02-01T00:30:00;20.00;34.10
43561;DHT22;32305;46.410;17.394;2023-02-01T00:32:27;20.00;34.10
43561;DHT22;32305;46.410;17.394;2023-02-01T00:34:54;20.00;34.10
43561;DHT22;32305;46.410;17.394;2023-02-01T00:37:21;20.00;34.20
43561;DHT22;32305;46.410;17.394;2023-02-01T00:39:49;20.00;34.10
43561;DHT22;32305;46.410;17.394;2023-02-01T00:42:17;20.00;34.20
43561;DHT22;32305;46.410;17.394;2023-02-01T00:44:44;20.00;34.10
43561;DHT22;32305;46.410;17.394;2023-02-01T00:47:11;20.00;34.10
43561;DHT22;32305;46.410;17.394;2023-02-01T00:49:38;20.00;34.10
43561;DHT22;32305;46.410;17.394;2023-02-01T00:52:05;20.00;34.10
43561;DHT22;32305;46.410;17.394;2023-02-01T00:54:33;20.00;34.20
43561;DHT22;32305;46.410;17.394;2023-02-01T00:57:00;20.00;34.20
43561;DHT22;32305;46.410;17.394;2023-02-01T00:59:27;20.00;34.10
43561;DHT22;32305;46.410;17.394;2023-02-01T01:01:54;20.00;34.10
43561;DHT22;32305;46.410;17.394;2023-02-01T01:04:21;20.00;34.10
43561;DHT22;32305;46.410;17.394;2023-02-01T01:06:48;20.00;34.20
43561;DHT22;32305;46.410;17.394;2023-02-01T01:09:15;20.00;34.10
43561;DHT22;32305;46.410;17.394;2023-02-01T01:11:42;20.00;34.10
43561;DHT22;32305;46.410;17.394;2023-02-01T01:14:10;20.00;34.10
43561;DHT22;32305;46.410;17.394;2023-02-01T01:16:38;20.00;34.10
43561;DHT22;32305;46.410;17.394;2023-02-01T01:19:05;20.00;34.10
43561;DHT22;32305;46.410;17.394;2023-02-01T01:21:32;20.00;34.10
43561;DHT22;32305;46.410;17.394;2023-02-01T01:23:59;20.00;34.10
43561;DHT22;32305;46.410;17.394;2023-02-01T01:26:28;19.90;34.10
43561;DHT22;32305;46.410;17.394;2023-02-01T01:28:57;19.90;34.10
43561;DHT22;32305;46.410;17.394;2023-02-01T01:31:25;19.90;34.10
43561;DHT22;32305;46.410;17.394;2023-02-01T01:33:55;19.90;34.10
43561;DHT22;32305;46.410;17.394;2023-02-01T01:36:23;19.90;34.10
43561;DHT22;32305;46.410;17.394;2023-02-01T01:38:50;19.90;34.10
43561;DHT22;32305;46.410;17.394;2023-02-01T01:41:23;19.90;34.10
43561;DHT22;32305;46.410;17.394;2023-02-01T01:43:54;19.90;34.10
43561;DHT22;32305;46.410;17.394;2023-02-01T01:46:22;19.90;34.10
43561;DHT22;32305;46.410;17.394;2023-02-01T01:48:56;19.90;34.10
43561;DHT22;32305;46.410;17.394;2023-02-01T01:51:24;19.90;34.10
43561;DHT22;32305;46.410;17.394;2023-02-01T01:54:06;19.90;34.00
43561;DHT22;32305;46.410;17.394;2023-02-01T01:56:34;19.90;34.00
43561;DHT22;32305;46.410;17.394;2023-02-01T01:59:02;19.90;34.00
43561;DHT22;32305;46.410;17.394;2023-02-01T02:01:29;19.90;34.00
43561;DHT22;32305;46.410;17.394;2023-02-01T02:03:57;19.90;34.00
43561;DHT22;32305;46.410;17.394;2023-02-01T02:06:44;20.00;34.00
43561;DHT22;32305;46.410;17.394;2023-02-01T02:09:15;19.90;34.00
43561;DHT22;32305;46.410;17.394;2023-02-01T02:11:42;19.90;34.00
43561;DHT22;32305;46.410;17.394;2023-02-01T02:14:14;19.90;34.60
43561;DHT22;32305;46.410;17.394;2023-02-01T02:16:55;19.90;34.00
43561;DHT22;32305;46.410;17.394;2023-02-01T02:20:04;19.90;34.00
43561;DHT22;32305;46.410;17.394;2023-02-01T02:23:01;19.90;34.00
43561;DHT22;32305;46.410;17.394;2023-02-01T02:29:04;19.90;34.00
43561;DHT22;32305;46.410;17.394;2023-02-01T02:34:57;19.90;34.00
43561;DHT22;32305;46.410;17.394;2023-02-01T02:37:40;19.90;34.00
43561;DHT22;32305;46.410;17.394;2023-02-01T02:40:36;19.90;34.00
43561;DHT22;32305;46.410;17.394;2023-02-01T02:43:22;19.90;34.00
43561;DHT22;32305;46.410;17.394;2023-02-01T02:46:24;19.90;34.00
43561;DHT22;32305;46.410;17.394;2023-02-01T02:49:17;19.90;34.00
43561;DHT22;32305;46.410;17.394;2023-02-01T02:51:53;19.90;34.00
43561;DHT22;32305;46.410;17.394;2023-02-01T02:54:45;19.90;34.00
43561;DHT22;32305;46.410;17.394;2023-02-01T02:57:19;19.90;34.10
43561;DHT22;32305;46.410;17.394;2023-02-01T03:00:10;19.80;34.00
43561;DHT22;32305;46.410;17.394;2023-02-01T03:02:58;19.90;34.00
43561;DHT22;32305;46.410;17.394;2023-02-01T03:05:46;19.90;34.10
43561;DHT22;32305;46.410;17.394;2023-02-01T03:08:16;19.90;34.00
43561;DHT22;32305;46.410;17.394;2023-02-01T03:11:01;19.90;34.00
43561;DHT22;32305;46.410;17.394;2023-02-01T03:13:57;19.90;34.00
43561;DHT22;32305;46.410;17.394;2023-02-01T03:16:32;19.80;34.00
43561;DHT22;32305;46.410;17.394;2023-02-01T03:19:11;19.90;34.00
43561;DHT22;32305;46.410;17.394;2023-02-01T03:21:53;19.90;34.10
43561;DHT22;32305;46.410;17.394;2023-02-01T03:24:36;19.80;34.00
43561;DHT22;32305;46.410;17.394;2023-02-01T03:27:10;19.80;34.00
43561;DHT22;32305;46.410;17.394;2023-02-01T03:29:49;19.80;34.00
43561;DHT22;32305;46.410;17.394;2023-02-01T03:32:17;19.80;34.00
43561;DHT22;32305;46.410;17.394;2023-02-01T03:34:45;19.80;34.00
43561;DHT22;32305;46.410;17.394;2023-02-01T03:37:16;19.80;34.00
43561;DHT22;32305;46.410;17.394;2023-02-01T03:40:01;19.80;34.00
43561;DHT22;32305;46.410;17.394;2023-02-01T03:42:44;19.80;34.00
43561;DHT22;32305;46.410;17.394;2023-02-01T03:45:24;19.80;34.00
43561;DHT22;32305;46.410;17.394;2023-02-01T03:47:56;19.80;34.00
43561;DHT22;32305;46.410;17.394;2023-02-01T03:50:27;19.80;34.00
43561;DHT22;32305;46.410;17.394;2023-02-01T03:53:02;19.80;34.00
43561;DHT22;32305;46.410;17.394;2023-02-01T03:55:32;19.80;34.00
43561;DHT22;32305;46.410;17.394;2023-02-01T03:58:06;19.80;34.00
43561;DHT22;32305;46.410;17.394;2023-02-01T04:00:33;19.80;34.00
43561;DHT22;32305;46.410;17.394;2023-02-01T04:03:03;19.80;34.00
43561;DHT22;32305;46.410;17.394;2023-02-01T04:05:31;19.80;34.00
43561;DHT22;32305;46.410;17.394;2023-02-01T04:07:58;19.80;33.90
43561;DHT22;32305;46.410;17.394;2023-02-01T04:10:26;19.80;33.90
43561;DHT22;32305;46.410;17.394;2023-02-01T04:12:53;19.80;33.90
43561;DHT22;32305;46.410;17.394;2023-02-01T04:15:20;19.80;33.90
43561;DHT22;32305;46.410;17.394;2023-02-01T04:17:47;19.80;33.90
43561;DHT22;32305;46.410;17.394;2023-02-01T04:20:14;19.80;33.90
43561;DHT22;32305;46.410;17.394;2023-02-01T04:22:42;19.80;33.90
43561;DHT22;32305;46.410;17.394;2023-02-01T04:25:10;19.80;33.90
43561;DHT22;32305;46.410;17.394;2023-02-01T04:27:37;19.80;33.90
43561;DHT22;32305;46.410;17.394;2023-02-01T04:30:04;19.80;33.90
43561;DHT22;32305;46.410;17.394;2023-02-01T04:32:37;19.80;33.90
43561;DHT22;32305;46.410;17.394;2023-02-01T04:35:05;19.80;33.90
43561;DHT22;32305;46.410;17.394;2023-02-01T04:37:32;19.80;33.90
43561;DHT22;32305;46.410;17.394;2023-02-01T04:39:59;19.80;33.90
43561;DHT22;32305;46.410;17.394;2023-02-01T04:42:27;19.80;33.90
43561;DHT22;32305;46.410;17.394;2023-02-01T04:44:54;19.80;33.90
43561;DHT22;32305;46.410;17.394;2023-02-01T04:47:21;19.80;33.80
43561;DHT22;32305;46.410;17.394;2023-02-01T04:49:48;19.80;33.90
43561;DHT22;32305;46.410;17.394;2023-02-01T04:52:15;19.80;33.90
43561;DHT22;32305;46.410;17.394;2023-02-01T04:54:42;19.80;33.80
43561;DHT22;32305;46.410;17.394;2023-02-01T04:57:09;19.80;33.90
43561;DHT22;32305;46.410;17.394;2023-02-01T04:59:36;19.80;33.80
43561;DHT22;32305;46.410;17.394;2023-02-01T05:02:03;19.80;33.90
43561;DHT22;32305;46.410;17.394;2023-02-01T05:04:30;19.80;33.90
43561;DHT22;32305;46.410;17.394;2023-02-01T05:06:57;19.80;33.90
43561;DHT22;32305;46.410;17.394;2023-02-01T05:09:24;19.80;33.90
43561;DHT22;32305;46.410;17.394;2023-02-01T05:11:52;19.80;33.90
43561;DHT22;32305;46.410;17.394;2023-02-01T05:14:38;19.80;33.90
43561;DHT22;32305;46.410;17.394;2023-02-01T05:17:06;19.80;33.90
43561;DHT22;32305;46.410;17.394;2023-02-01T05:19:33;19.80;33.80
43561;DHT22;32305;46.410;17.394;2023-02-01T05:22:00;19.80;33.90
43561;DHT22;32305;46.410;17.394;2023-02-01T05:24:27;19.80;33.80
43561;DHT22;32305;46.410;17.394;2023-02-01T05:26:54;19.80;33.90
43561;DHT22;32305;46.410;17.394;2023-02-01T05:29:21;19.70;33.80
43561;DHT22;32305;46.410;17.394;2023-02-01T05:31:48;19.70;33.80
43561;DHT22;32305;46.410;17.394;2023-02-01T05:34:16;19.70;33.80
43561;DHT22;32305;46.410;17.394;2023-02-01T05:36:43;19.70;33.80
43561;DHT22;32305;46.410;17.394;2023-02-01T05:39:10;19.70;33.60
43561;DHT22;32305;46.410;17.394;2023-02-01T05:41:37;19.70;33.30
43561;DHT22;32305;46.410;17.394;2023-02-01T05:44:05;19.70;33.20
43561;DHT22;32305;46.410;17.394;2023-02-01T05:46:35;19.70;33.10
43561;DHT22;32305;46.410;17.394;2023-02-01T05:49:03;19.70;33.10
43561;DHT22;32305;46.410;17.394;2023-02-01T05:51:30;19.70;33.20
43561;DHT22;32305;46.410;17.394;2023-02-01T05:53:57;19.70;33.20
43561;DHT22;32305;46.410;17.394;2023-02-01T05:56:25;19.60;33.10
43561;DHT22;32305;46.410;17.394;2023-02-01T05:58:52;19.60;33.20
43561;DHT22;32305;46.410;17.394;2023-02-01T06:01:19;19.70;33.30
43561;DHT22;32305;46.410;17.394;2023-02-01T06:03:46;19.70;33.30
43561;DHT22;32305;46.410;17.394;2023-02-01T06:06:13;19.70;33.30
43561;DHT22;32305;46.410;17.394;2023-02-01T06:08:40;19.70;33.20
43561;DHT22;32305;46.410;17.394;2023-02-01T06:11:07;19.70;33.20
43561;DHT22;32305;46.410;17.394;2023-02-01T06:13:36;19.80;33.20
43561;DHT22;32305;46.410;17.394;2023-02-01T06:16:05;19.80;33.20
43561;DHT22;32305;46.410;17.394;2023-02-01T06:18:35;19.80;33.20
43561;DHT22;32305;46.410;17.394;2023-02-01T06:21:02;19.80;33.10
43561;DHT22;32305;46.410;17.394;2023-02-01T06:23:30;19.90;33.10
43561;DHT22;32305;46.410;17.394;2023-02-01T06:26:03;19.90;33.60
43561;DHT22;32305;46.410;17.394;2023-02-01T06:28:32;19.90;33.00
43561;DHT22;32305;46.410;17.394;2023-02-01T06:31:05;19.90;32.90
43561;DHT22;32305;46.410;17.394;2023-02-01T06:33:34;20.00;33.00
43561;DHT22;32305;46.410;17.394;2023-02-01T06:36:03;20.00;32.90
43561;DHT22;32305;46.410;17.394;2023-02-01T06:38:31;20.00;32.90
43561;DHT22;32305;46.410;17.394;2023-02-01T06:40:58;20.10;32.90
43561;DHT22;32305;46.410;17.394;2023-02-01T06:43:26;20.10;33.10
43561;DHT22;32305;46.410;17.394;2023-02-01T06:46:03;20.20;33.40
43561;DHT22;32305;46.410;17.394;2023-02-01T06:48:31;20.20;33.20
43561;DHT22;32305;46.410;17.394;2023-02-01T06:51:21;20.30;33.40
43561;DHT22;32305;46.410;17.394;2023-02-01T06:53:52;20.30;33.60
43561;DHT22;32305;46.410;17.394;2023-02-01T06:56:20;20.30;33.60
43561;DHT22;32305;46.410;17.394;2023-02-01T06:58:47;20.40;33.50
43561;DHT22;32305;46.410;17.394;2023-02-01T07:01:15;20.50;33.40
43561;DHT22;32305;46.410;17.394;2023-02-01T07:03:42;20.50;33.40
43561;DHT22;32305;46.410;17.394;2023-02-01T07:06:10;20.60;33.50
43561;DHT22;32305;46.410;17.394;2023-02-01T07:08:38;20.60;33.60
43561;DHT22;32305;46.410;17.394;2023-02-01T07:11:08;20.70;33.60
43561;DHT22;32305;46.410;17.394;2023-02-01T07:13:35;20.70;33.60
43561;DHT22;32305;46.410;17.394;2023-02-01T07:16:05;20.70;33.40
43561;DHT22;32305;46.410;17.394;2023-02-01T07:18:33;20.80;33.50
43561;DHT22;32305;46.410;17.394;2023-02-01T07:21:00;20.80;33.60
43561;DHT22;32305;46.410;17.394;2023-02-01T07:23:28;20.90;33.70
43561;DHT22;32305;46.410;17.394;2023-02-01T07:25:57;20.90;33.70
43561;DHT22;32305;46.410;17.394;2023-02-01T07:28:25;21.00;33.80
43561;DHT22;32305;46.410;17.394;2023-02-01T07:30:53;21.00;33.70
43561;DHT22;32305;46.410;17.394;2023-02-01T07:33:22;21.00;33.60
43561;DHT22;32305;46.410;17.394;2023-02-01T07:35:53;21.10;33.50
43561;DHT22;32305;46.410;17.394;2023-02-01T07:38:20;21.10;33.50
43561;DHT22;32305;46.410;17.394;2023-02-01T07:40:48;21.10;33.40
43561;DHT22;32305;46.410;17.394;2023-02-01T07:43:16;21.20;33.40
43561;DHT22;32305;46.410;17.394;2023-02-01T07:45:43;21.20;33.30
43561;DHT22;32305;46.410;17.394;2023-02-01T07:48:16;21.30;33.40
43561;DHT22;32305;46.410;17.394;2023-02-01T07:50:44;21.30;33.40
43561;DHT22;32305;46.410;17.394;2023-02-01T07:53:11;21.40;33.20
43561;DHT22;32305;46.410;17.394;2023-02-01T07:55:39;21.40;33.10
43561;DHT22;32305;46.410;17.394;2023-02-01T07:58:06;21.50;32.90
43561;DHT22;32305;46.410;17.394;2023-02-01T08:00:33;21.50;32.70
43561;DHT22;32305;46.410;17.394;2023-02-01T08:03:21;21.50;32.60
43561;DHT22;32305;46.410;17.394;2023-02-01T08:05:48;21.50;32.50
43561;DHT22;32305;46.410;17.394;2023-02-01T08:08:15;21.60;32.40
43561;DHT22;32305;46.410;17.394;2023-02-01T08:10:42;21.60;32.50
43561;DHT22;32305;46.410;17.394;2023-02-01T08:13:09;21.70;32.90
43561;DHT22;32305;46.410;17.394;2023-02-01T08:15:36;21.70;32.90
43561;DHT22;32305;46.410;17.394;2023-02-01T08:18:03;21.70;32.90
43561;DHT22;32305;46.410;17.394;2023-02-01T08:20:32;21.70;33.00
43561;DHT22;32305;46.410;17.394;2023-02-01T08:23:02;21.80;33.10
43561;DHT22;32305;46.410;17.394;2023-02-01T08:25:29;21.80;33.10
43561;DHT22;32305;46.410;17.394;2023-02-01T08:27:56;21.80;33.10
43561;DHT22;32305;46.410;17.394;2023-02-01T08:30:23;21.90;33.00
43561;DHT22;32305;46.410;17.394;2023-02-01T08:32:51;21.90;32.90
43561;DHT22;32305;46.410;17.394;2023-02-01T08:35:19;21.90;32.80
43561;DHT22;32305;46.410;17.394;2023-02-01T08:37:52;21.90;32.70
43561;DHT22;32305;46.410;17.394;2023-02-01T08:40:19;21.90;32.60
43561;DHT22;32305;46.410;17.394;2023-02-01T08:42:48;21.90;32.40
43561;DHT22;32305;46.410;17.394;2023-02-01T08:45:21;21.90;32.40
43561;DHT22;32305;46.410;17.394;2023-02-01T08:47:48;22.00;32.30
43561;DHT22;32305;46.410;17.394;2023-02-01T08:50:16;22.00;32.30
43561;DHT22;32305;46.410;17.394;2023-02-01T08:52:44;22.00;32.20
43561;DHT22;32305;46.410;17.394;2023-02-01T08:55:12;22.00;32.10
43561;DHT22;32305;46.410;17.394;2023-02-01T08:57:40;21.90;32.00
43561;DHT22;32305;46.410;17.394;2023-02-01T09:00:11;22.00;32.00
43561;DHT22;32305;46.410;17.394;2023-02-01T09:02:39;22.00;32.50
43561;DHT22;32305;46.410;17.394;2023-02-01T09:05:06;22.00;31.90
43561;DHT22;32305;46.410;17.394;2023-02-01T09:07:34;22.00;32.00
43561;DHT22;32305;46.410;17.394;2023-02-01T09:10:02;22.00;32.10
43561;DHT22;32305;46.410;17.394;2023-02-01T09:12:31;22.00;32.10
43561;DHT22;32305;46.410;17.394;2023-02-01T09:14:58;22.10;32.20
43561;DHT22;32305;46.410;17.394;2023-02-01T09:17:27;22.10;32.10
43561;DHT22;32305;46.410;17.394;2023-02-01T09:20:00;22.10;32.10
43561;DHT22;32305;46.410;17.394;2023-02-01T09:22:27;22.10;31.90
43561;DHT22;32305;46.410;17.394;2023-02-01T09:24:54;22.10;31.70
43561;DHT22;32305;46.410;17.394;2023-02-01T09:27:21;22.20;31.50
43561;DHT22;32305;46.410;17.394;2023-02-01T09:29:49;22.30;31.40
43561;DHT22;32305;46.410;17.394;2023-02-01T09:32:23;22.30;31.40
43561;DHT22;32305;46.410;17.394;2023-02-01T09:34:52;22.30;31.30
43561;DHT22;32305;46.410;17.394;2023-02-01T09:37:19;22.40;31.30
43561;DHT22;32305;46.410;17.394;2023-02-01T09:39:47;22.40;31.20
43561;DHT22;32305;46.410;17.394;2023-02-01T09:45:43;22.40;31.00
43561;DHT22;32305;46.410;17.394;2023-02-01T09:48:17;22.50;31.00
43561;DHT22;32305;46.410;17.394;2023-02-01T09:50:55;22.50;30.90
43561;DHT22;32305;46.410;17.394;2023-02-01T09:53:29;22.50;30.90
43561;DHT22;32305;46.410;17.394;2023-02-01T09:56:12;22.50;30.80
43561;DHT22;32305;46.410;17.394;2023-02-01T09:58:48;22.60;30.80
43561;DHT22;32305;46.410;17.394;2023-02-01T10:01:21;22.60;31.00
43561;DHT22;32305;46.410;17.394;2023-02-01T10:03:59;22.60;31.20
43561;DHT22;32305;46.410;17.394;2023-02-01T10:10:01;22.70;31.20
43561;DHT22;32305;46.410;17.394;2023-02-01T10:12:56;22.70;31.30
43561;DHT22;32305;46.410;17.394;2023-02-01T10:16:02;22.80;31.40
43561;DHT22;32305;46.410;17.394;2023-02-01T10:18:49;22.80;31.20
43561;DHT22;32305;46.410;17.394;2023-02-01T10:21:38;22.90;31.00
43561;DHT22;32305;46.410;17.394;2023-02-01T10:24:25;22.90;30.80
43561;DHT22;32305;46.410;17.394;2023-02-01T10:27:17;22.90;30.60
43561;DHT22;32305;46.410;17.394;2023-02-01T10:29:50;23.00;30.50
43561;DHT22;32305;46.410;17.394;2023-02-01T10:32:28;23.00;30.30
43561;DHT22;32305;46.410;17.394;2023-02-01T10:35:16;23.10;30.40
43561;DHT22;32305;46.410;17.394;2023-02-01T10:37:45;23.10;30.50
43561;DHT22;32305;46.410;17.394;2023-02-01T10:40:21;23.10;30.50
43561;DHT22;32305;46.410;17.394;2023-02-01T10:42:52;23.10;30.40
43561;DHT22;32305;46.410;17.394;2023-02-01T10:45:22;23.10;30.40
43561;DHT22;32305;46.410;17.394;2023-02-01T10:47:51;23.20;30.40
43561;DHT22;32305;46.410;17.394;2023-02-01T10:50:49;23.20;30.50
43561;DHT22;32305;46.410;17.394;2023-02-01T10:53:33;23.20;30.70
43561;DHT22;32305;46.410;17.394;2023-02-01T10:56:09;23.20;30.80
43561;DHT22;32305;46.410;17.394;2023-02-01T10:58:44;23.20;30.70
43561;DHT22;32305;46.410;17.394;2023-02-01T11:04:07;23.30;30.40
43561;DHT22;32305;46.410;17.394;2023-02-01T11:06:39;23.20;30.10
43561;DHT22;32305;46.410;17.394;2023-02-01T11:09:16;23.30;30.10
43561;DHT22;32305;46.410;17.394;2023-02-01T11:11:55;23.30;30.10
43561;DHT22;32305;46.410;17.394;2023-02-01T11:14:40;23.30;30.00
43561;DHT22;32305;46.410;17.394;2023-02-01T11:17:26;23.30;30.00
43561;DHT22;32305;46.410;17.394;2023-02-01T11:20:00;23.40;30.00
43561;DHT22;32305;46.410;17.394;2023-02-01T11:22:28;23.40;29.90
43561;DHT22;32305;46.410;17.394;2023-02-01T11:24:56;23.40;29.80
43561;DHT22;32305;46.410;17.394;2023-02-01T11:27:25;23.40;29.80
43561;DHT22;32305;46.410;17.394;2023-02-01T11:29:58;23.40;29.70
43561;DHT22;32305;46.410;17.394;2023-02-01T11:32:27;23.40;29.70
43561;DHT22;32305;46.410;17.394;2023-02-01T11:34:57;23.40;29.80
43561;DHT22;32305;46.410;17.394;2023-02-01T11:37:33;23.40;29.80
43561;DHT22;32305;46.410;17.394;2023-02-01T11:40:12;23.40;30.00
43561;DHT22;32305;46.410;17.394;2023-02-01T11:42:55;23.30;29.90
43561;DHT22;32305;46.410;17.394;2023-02-01T11:45:28;23.40;29.90
43561;DHT22;32305;46.410;17.394;2023-02-01T11:47:57;23.40;30.00
43561;DHT22;32305;46.410;17.394;2023-02-01T11:53:55;23.40;29.90
43561;DHT22;32305;46.410;17.394;2023-02-01T11:56:36;23.40;29.90
43561;DHT22;32305;46.410;17.394;2023-02-01T11:59:33;23.40;29.90
43561;DHT22;32305;46.410;17.394;2023-02-01T12:02:24;23.40;29.90
43561;DHT22;32305;46.410;17.394;2023-02-01T12:05:05;23.50;29.80
43561;DHT22;32305;46.410;17.394;2023-02-01T12:08:01;23.50;29.80
43561;DHT22;32305;46.410;17.394;2023-02-01T12:19:42;23.60;29.80
43561;DHT22;32305;46.410;17.394;2023-02-01T12:22:48;23.60;29.70
43561;DHT22;32305;46.410;17.394;2023-02-01T12:25:40;23.60;29.70
43561;DHT22;32305;46.410;17.394;2023-02-01T12:28:31;23.60;29.70
43561;DHT22;32305;46.410;17.394;2023-02-01T12:31:20;23.60;29.90
43561;DHT22;32305;46.410;17.394;2023-02-01T12:34:22;23.60;29.80
43561;DHT22;32305;46.410;17.394;2023-02-01T12:40:16;23.60;29.70
43561;DHT22;32305;46.410;17.394;2023-02-01T12:43:03;23.60;29.70
43561;DHT22;32305;46.410;17.394;2023-02-01T12:45:40;23.60;29.70
43561;DHT22;32305;46.410;17.394;2023-02-01T12:48:33;23.60;29.80
43561;DHT22;32305;46.410;17.394;2023-02-01T12:51:07;23.60;29.70
43561;DHT22;32305;46.410;17.394;2023-02-01T12:56:47;23.50;30.00
43561;DHT22;32305;46.410;17.394;2023-02-01T12:59:42;23.50;30.10
43561;DHT22;32305;46.410;17.394;2023-02-01T13:02:18;23.50;30.20
43561;DHT22;32305;46.410;17.394;2023-02-01T13:05:04;23.40;30.30
43561;DHT22;32305;46.410;17.394;2023-02-01T13:07:47;23.40;30.40
43561;DHT22;32305;46.410;17.394;2023-02-01T13:10:26;23.40;30.50
43561;DHT22;32305;46.410;17.394;2023-02-01T13:13:17;23.40;30.60
43561;DHT22;32305;46.410;17.394;2023-02-01T13:16:21;23.40;30.60
43561;DHT22;32305;46.410;17.394;2023-02-01T13:18:49;23.40;30.70
43561;DHT22;32305;46.410;17.394;2023-02-01T13:21:31;23.40;30.80
43561;DHT22;32305;46.410;17.394;2023-02-01T13:23:59;23.40;30.90
43561;DHT22;32305;46.410;17.394;2023-02-01T13:26:26;23.40;30.90
43561;DHT22;32305;46.410;17.394;2023-02-01T13:28:59;23.40;30.90
43561;DHT22;32305;46.410;17.394;2023-02-01T13:31:47;23.40;30.90
43561;DHT22;32305;46.410;17.394;2023-02-01T13:40:44;23.40;30.90
43561;DHT22;32305;46.410;17.394;2023-02-01T13:43:22;23.40;30.90
43561;DHT22;32305;46.410;17.394;2023-02-01T13:45:53;23.40;30.90
43561;DHT22;32305;46.410;17.394;2023-02-01T13:48:29;23.30;30.90
43561;DHT22;32305;46.410;17.394;2023-02-01T13:50:59;23.40;31.00
43561;DHT22;32305;46.410;17.394;2023-02-01T13:53:32;23.40;31.10
43561;DHT22;32305;46.410;17.394;2023-02-01T13:56:02;23.40;31.20
43561;DHT22;32305;46.410;17.394;2023-02-01T13:58:33;23.40;31.10
43561;DHT22;32305;46.410;17.394;2023-02-01T14:01:33;23.40;31.10
43561;DHT22;32305;46.410;17.394;2023-02-01T14:04:06;23.40;31.10
43561;DHT22;32305;46.410;17.394;2023-02-01T14:06:53;23.40;31.10
43561;DHT22;32305;46.410;17.394;2023-02-01T14:09:34;23.40;31.30
43561;DHT22;32305;46.410;17.394;2023-02-01T14:12:44;23.40;31.40
43561;DHT22;32305;46.410;17.394;2023-02-01T14:15:23;23.40;31.30
43561;DHT22;32305;46.410;17.394;2023-02-01T14:17:52;23.40;31.30
43561;DHT22;32305;46.410;17.394;2023-02-01T14:20:40;23.40;31.40
43561;DHT22;32305;46.410;17.394;2023-02-01T14:23:13;23.40;31.60
43561;DHT22;32305;46.410;17.394;2023-02-01T14:25:41;23.40;31.60
43561;DHT22;32305;46.410;17.394;2023-02-01T14:28:24;23.40;31.80
43561;DHT22;32305;46.410;17.394;2023-02-01T14:30:53;23.40;31.80
43561;DHT22;32305;46.410;17.394;2023-02-01T14:33:26;23.40;31.90
43561;DHT22;32305;46.410;17.394;2023-02-01T14:36:04;23.40;32.00
43561;DHT22;32305;46.410;17.394;2023-02-01T14:38:33;23.30;31.90
43561;DHT22;32305;46.410;17.394;2023-02-01T14:41:26;23.30;31.90
43561;DHT22;32305;46.410;17.394;2023-02-01T14:44:22;23.30;31.90
43561;DHT22;32305;46.410;17.394;2023-02-01T14:47:26;23.30;31.90
43561;DHT22;32305;46.410;17.394;2023-02-01T14:50:03;23.30;31.80
43561;DHT22;32305;46.410;17.394;2023-02-01T14:52:40;23.30;31.70
43561;DHT22;32305;46.410;17.394;2023-02-01T14:55:28;23.30;31.80
43561;DHT22;32305;46.410;17.394;2023-02-01T14:57:58;23.30;31.80
43561;DHT22;32305;46.410;17.394;2023-02-01T15:00:29;23.30;31.80
43561;DHT22;32305;46.410;17.394;2023-02-01T15:03:23;23.30;32.00
43561;DHT22;32305;46.410;17.394;2023-02-01T15:05:57;23.30;31.90
43561;DHT22;32305;46.410;17.394;2023-02-01T15:08:31;23.30;31.90
43561;DHT22;32305;46.410;17.394;2023-02-01T15:11:02;23.30;31.90
43561;DHT22;32305;46.410;17.394;2023-02-01T15:13:30;23.30;31.80
43561;DHT22;32305;46.410;17.394;2023-02-01T15:16:04;23.30;31.80
43561;DHT22;32305;46.410;17.394;2023-02-01T15:18:32;23.30;31.80
43561;DHT22;32305;46.410;17.394;2023-02-01T15:21:01;23.30;31.90
43561;DHT22;32305;46.410;17.394;2023-02-01T15:23:49;23.30;32.00
43561;DHT22;32305;46.410;17.394;2023-02-01T15:26:28;23.20;31.70
43561;DHT22;32305;46.410;17.394;2023-02-01T15:28:57;23.20;31.60
43561;DHT22;32305;46.410;17.394;2023-02-01T15:31:51;23.10;31.60
43561;DHT22;32305;46.410;17.394;2023-02-01T15:34:20;23.10;31.80
43561;DHT22;32305;46.410;17.394;2023-02-01T15:36:48;23.10;32.00
43561;DHT22;32305;46.410;17.394;2023-02-01T15:39:29;23.10;32.10
43561;DHT22;32305;46.410;17.394;2023-02-01T15:42:00;23.10;32.30
43561;DHT22;32305;46.410;17.394;2023-02-01T15:44:39;23.00;32.30
43561;DHT22;32305;46.410;17.394;2023-02-01T15:47:26;23.00;32.60
43561;DHT22;32305;46.410;17.394;2023-02-01T15:49:55;23.00;32.80
43561;DHT22;32305;46.410;17.394;2023-02-01T15:52:38;22.90;32.80
43561;DHT22;32305;46.410;17.394;2023-02-01T15:55:18;22.90;32.90
43561;DHT22;32305;46.410;17.394;2023-02-01T15:57:50;22.80;33.00
43561;DHT22;32305;46.410;17.394;2023-02-01T16:00:28;22.80;33.10
43561;DHT22;32305;46.410;17.394;2023-02-01T16:02:59;22.70;33.30
43561;DHT22;32305;46.410;17.394;2023-02-01T16:05:35;22.70;33.50
43561;DHT22;32305;46.410;17.394;2023-02-01T16:08:15;22.60;33.80
43561;DHT22;32305;46.410;17.394;2023-02-01T16:10:45;22.60;34.20
43561;DHT22;32305;46.410;17.394;2023-02-01T16:13:13;22.50;34.30
43561;DHT22;32305;46.410;17.394;2023-02-01T16:15:41;22.50;34.70
43561;DHT22;32305;46.410;17.394;2023-02-01T16:18:10;22.50;35.20
43561;DHT22;32305;46.410;17.394;2023-02-01T16:20:39;22.40;35.60
43561;DHT22;32305;46.410;17.394;2023-02-01T16:23:08;22.40;35.90
43561;DHT22;32305;46.410;17.394;2023-02-01T16:25:36;22.40;36.00
43561;DHT22;32305;46.410;17.394;2023-02-01T16:28:03;22.30;36.00
43561;DHT22;32305;46.410;17.394;2023-02-01T16:30:32;22.30;36.10
43561;DHT22;32305;46.410;17.394;2023-02-01T16:33:01;22.20;36.10
43561;DHT22;32305;46.410;17.394;2023-02-01T16:35:37;22.20;36.10